Okesa, Oklahoma
Current Conditions -  °F | °C
As of 5:53 PM on Monday 20 Oct 2014 (Local Time) from KBVO Reporting Station
Clear Clear  
Wind Chill: 74°   Ceiling: Unl
Heat Index: 74°   Visibility: 10mi
Dew Point: 59°   Wind: 0mph
Humidity: 59%   Direction: NA
Pressure: 30.03"   Gusts: NA
Location:  36.7524°N, 96.0733°W
Report Text: KBVO 202253Z AUTO 00000KT 10SM CLR 23/15 A3003 RMK AO2 SLP161 T02330150
Loading
Personal Weather Stations






























Interactive Weather Map
Tropical Storm Tracking
New forecast layout! Learn more

10-Day Weather Forecast

Advertisements
Track Severe Weather on mobile